Ashburn Park, Illinois
Current Conditions -  °F | °C
As of 2:41 AM on Saturday 22 Nov 2014 (Local Time) from KMDW Reporting Station
Haze Haze  
Wind Chill: 26°   Ceiling: 1300
Heat Index: 35°   Visibility: 5mi
Dew Point: 28°   Wind: 14mph
Humidity: 76%   Direction: 210°SSW
Pressure: 30.13"   Gusts: NA
Location:  41.7473°N, 87.7132°W
Report Text: KMDW 220841Z 21012KT 5SM HZ OVC013 02/M02 A3013 RMK AO2 T00171022
Loading
Personal Weather Stations






























Interactive Weather Map New forecast layout! Learn more

10-Day Weather Forecast

Advertisements
Track Severe Weather on mobile